Time;durP1;ratioP1;P1;durP2;ratioP2;P2;SDS_P1;SDS_P2;PMS_P1;PMS_P2;Temp;Humidity;BMP_temperature;BMP_pressure;BME280_temperature;BME280_humidity;BME280_pressure;Samples;Min_cycle;Max_cycle;Signal;HPM_P1;HPM_P2
2022/10/06 00:02:36;;;;;;;0.40;0.20;;;;;;;14.20;100.00;101547.69;6253921;28;20501;-80
2022/10/06 00:05:38;;;;;;;0.30;0.20;;;;;;;14.20;100.00;101549.50;6255520;28;20053;-80
2022/10/06 00:08:41;;;;;;;0.28;0.15;;;;;;;14.08;100.00;101553.69;6275629;22;20045;-77
2022/10/06 00:11:44;;;;;;;0.20;0.20;;;;;;;14.12;100.00;101565.78;6249122;28;20489;-77
2022/10/06 00:14:46;;;;;;;0.10;0.10;;;;;;;14.08;100.00;101556.34;6249509;28;20061;-76
2022/10/06 00:17:47;;;;;;;0.63;0.20;;;;;;;14.13;100.00;101550.78;6249617;28;20056;-77
2022/10/06 00:20:54;;;;;;;0.45;0.22;;;;;;;14.23;100.00;101545.84;6250713;28;20061;-80
2022/10/06 00:23:56;;;;;;;0.10;0.10;;;;;;;14.23;100.00;101553.78;6250587;28;20045;-80
2022/10/06 00:26:59;;;;;;;1.98;0.10;;;;;;;14.16;100.00;101559.38;6251204;28;20045;-80
2022/10/06 00:30:01;;;;;;;0.10;0.10;;;;;;;14.20;100.00;101565.34;6250926;28;20046;-80
2022/10/06 00:33:03;;;;;;;2.10;0.35;;;;;;;14.22;100.00;101571.44;6251290;28;20049;-80
2022/10/06 00:36:06;;;;;;;0.15;0.15;;;;;;;14.21;100.00;101564.41;6250899;28;20072;-80
2022/10/06 00:39:07;;;;;;;2.40;0.20;;;;;;;14.17;100.00;101587.53;6251022;28;20053;-80
2022/10/06 00:42:23;;;;;;;0.10;0.10;;;;;;;14.28;100.00;101579.00;6250001;28;20064;-79
2022/10/06 00:45:29;;;;;;;0.13;0.13;;;;;;;14.25;100.00;101594.19;6251567;28;20049;-80
2022/10/06 00:48:31;;;;;;;1.30;0.38;;;;;;;14.19;100.00;101601.53;6250190;28;20057;-77
2022/10/06 00:51:33;;;;;;;0.50;0.20;;;;;;;14.27;100.00;101602.91;6249372;28;20042;-80
2022/10/06 00:54:36;;;;;;;0.13;0.13;;;;;;;14.28;100.00;101604.59;6249888;28;20061;-80
2022/10/06 00:57:40;;;;;;;0.25;0.25;;;;;;;14.24;100.00;101613.63;6249999;28;20061;-80
2022/10/06 01:00:44;;;;;;;0.57;0.30;;;;;;;14.28;100.00;101615.19;6252062;28;20048;-81
2022/10/06 01:03:50;;;;;;;0.30;0.30;;;;;;;14.24;100.00;101622.41;6250805;28;20045;-80
2022/10/06 01:06:54;;;;;;;0.20;0.20;;;;;;;14.39;100.00;101620.72;6250861;28;20052;-81
2022/10/06 01:09:56;;;;;;;0.30;0.30;;;;;;;14.33;100.00;101629.00;6250702;28;20523;-80
2022/10/06 01:13:00;;;;;;;0.17;0.17;;;;;;;14.33;100.00;101639.56;6251618;28;20049;-80
2022/10/06 01:16:05;;;;;;;0.40;0.40;;;;;;;14.33;100.00;101650.16;6250783;28;20057;-81
2022/10/06 01:19:17;;;;;;;0.40;0.30;;;;;;;14.33;100.00;101651.00;6251437;28;20068;-80
2022/10/06 01:22:26;;;;;;;1.55;0.35;;;;;;;14.29;100.00;101656.53;6250318;28;20053;-80
2022/10/06 01:25:28;;;;;;;1.08;0.30;;;;;;;14.29;100.00;101659.19;6251582;28;20104;-78
2022/10/06 01:28:29;;;;;;;2.10;0.38;;;;;;;14.23;100.00;101648.94;6250979;28;20107;-81
2022/10/06 01:31:31;;;;;;;0.80;0.30;;;;;;;14.20;100.00;101647.31;6250460;28;20045;-80
2022/10/06 01:34:32;;;;;;;0.60;0.40;;;;;;;14.19;100.00;101648.25;6250999;28;20053;-81
2022/10/06 01:37:35;;;;;;;0.40;0.25;;;;;;;14.17;100.00;101650.13;6249822;28;20053;-81
2022/10/06 01:40:37;;;;;;;1.02;0.35;;;;;;;14.15;100.00;101659.94;6251437;28;20049;-79
2022/10/06 01:43:38;;;;;;;0.38;0.30;;;;;;;14.11;100.00;101666.31;6250471;28;20065;-80
2022/10/06 01:46:40;;;;;;;1.10;0.30;;;;;;;14.08;100.00;101675.28;6250107;28;20056;-80
2022/10/06 01:49:41;;;;;;;0.80;0.22;;;;;;;14.07;100.00;101677.97;6249662;28;20046;-79
2022/10/06 01:52:44;;;;;;;0.40;0.40;;;;;;;14.01;100.00;101681.81;6251045;28;20053;-81
2022/10/06 01:55:46;;;;;;;0.30;0.30;;;;;;;13.95;100.00;101682.16;6251034;28;20049;-81
2022/10/06 01:58:47;;;;;;;2.55;0.40;;;;;;;13.88;100.00;101692.16;6250283;28;20054;-81
2022/10/06 02:01:49;;;;;;;0.22;0.22;;;;;;;13.89;100.00;101707.06;6250288;28;20045;-80
2022/10/06 02:04:50;;;;;;;3.13;0.30;;;;;;;13.88;100.00;101705.38;6250572;28;20063;-81
2022/10/06 02:07:53;;;;;;;0.82;0.32;;;;;;;13.84;100.00;101711.75;6250067;28;20524;-80
2022/10/06 02:10:54;;;;;;;0.35;0.20;;;;;;;13.70;100.00;101708.97;6245485;28;20061;-80
2022/10/06 02:13:56;;;;;;;0.30;0.30;;;;;;;13.71;100.00;101718.59;6249495;28;20050;-80
2022/10/06 02:16:57;;;;;;;0.10;0.10;;;;;;;13.75;100.00;101724.56;6252140;28;20053;-80
2022/10/06 02:19:59;;;;;;;0.20;0.20;;;;;;;13.74;100.00;101722.88;6249970;28;20053;-80
2022/10/06 02:23:02;;;;;;;0.50;0.30;;;;;;;13.70;100.00;101736.22;6249458;28;20056;-80
2022/10/06 02:26:05;;;;;;;0.20;0.20;;;;;;;13.68;100.00;101739.91;6250816;28;20049;-79
2022/10/06 02:29:07;;;;;;;1.13;0.10;;;;;;;13.70;100.00;101745.94;6251254;28;20116;-77
2022/10/06 02:32:09;;;;;;;0.57;0.43;;;;;;;13.57;100.00;101750.97;6246793;28;20401;-77
2022/10/06 02:35:12;;;;;;;1.27;0.50;;;;;;;13.61;100.00;101763.09;6247072;28;20058;-78
2022/10/06 02:38:15;;;;;;;1.48;0.22;;;;;;;13.62;100.00;101761.31;6248738;28;20485;-76
2022/10/06 02:41:16;;;;;;;0.73;0.25;;;;;;;13.58;100.00;101762.41;6247420;28;20049;-77
2022/10/06 02:44:17;;;;;;;0.30;0.30;;;;;;;13.60;100.00;101771.13;6253272;28;20057;-77
2022/10/06 02:47:21;;;;;;;1.95;0.43;;;;;;;13.58;100.00;101778.25;6252841;28;20053;-78
2022/10/06 02:50:22;;;;;;;0.20;0.20;;;;;;;13.53;100.00;101775.81;6255631;28;20050;-79
2022/10/06 02:53:26;;;;;;;1.02;0.25;;;;;;;13.56;100.00;101791.53;6255492;28;20056;-79
2022/10/06 02:56:27;;;;;;;0.73;0.50;;;;;;;13.50;100.00;101791.84;6255330;28;20417;-79
2022/10/06 02:59:29;;;;;;;0.25;0.20;;;;;;;13.45;100.00;101802.63;6256073;28;20050;-80
2022/10/06 03:02:30;;;;;;;2.50;0.32;;;;;;;13.47;100.00;101809.63;6253465;28;20440;-80
2022/10/06 03:05:32;;;;;;;0.50;0.47;;;;;;;13.48;100.00;101813.97;6253476;28;20504;-79
2022/10/06 03:08:35;;;;;;;6.70;0.55;;;;;;;13.46;100.00;101811.41;6253322;28;20053;-79
2022/10/06 03:11:38;;;;;;;2.30;1.60;;;;;;;13.47;100.00;101828.09;6254649;28;20056;-80
2022/10/06 03:14:39;;;;;;;5.93;0.57;;;;;;;13.49;100.00;101820.94;6253750;28;20045;-80
2022/10/06 03:17:40;;;;;;;0.20;0.20;;;;;;;13.55;100.00;101841.81;6254491;28;20058;-77
2022/10/06 03:20:42;;;;;;;0.28;0.28;;;;;;;13.47;100.00;101836.88;6251404;28;20418;-77
2022/10/06 03:23:46;;;;;;;0.80;0.50;;;;;;;13.47;100.00;101836.88;6251660;28;20049;-77
2022/10/06 03:26:48;;;;;;;2.88;0.40;;;;;;;13.42;100.00;101862.66;6251705;28;20049;-77
2022/10/06 03:29:50;;;;;;;3.90;0.68;;;;;;;13.42;100.00;101865.28;6251815;28;20045;-77
2022/10/06 03:32:52;;;;;;;0.25;0.20;;;;;;;13.42;100.00;101875.84;6251492;28;20056;-78
2022/10/06 03:36:05;;;;;;;0.50;0.30;;;;;;;13.34;100.00;101886.78;6250959;28;20532;-75
2022/10/06 03:39:08;;;;;;;0.95;0.40;;;;;;;13.35;100.00;101874.41;6254476;28;20049;-80
2022/10/06 03:42:09;;;;;;;1.73;0.30;;;;;;;13.30;100.00;101879.06;6254801;28;20048;-78
2022/10/06 03:45:13;;;;;;;0.90;0.60;;;;;;;13.28;100.00;101888.84;6253127;28;20543;-79
2022/10/06 03:48:14;;;;;;;1.58;0.50;;;;;;;13.19;100.00;101890.94;6252630;28;20057;-80
2022/10/06 03:51:18;;;;;;;1.50;0.25;;;;;;;13.14;100.00;101889.44;6250481;28;20054;-79
2022/10/06 03:54:21;;;;;;;2.80;0.50;;;;;;;13.17;100.00;101908.66;6252550;28;20124;-80
2022/10/06 03:57:23;;;;;;;1.48;0.47;;;;;;;13.12;100.00;101917.69;6251629;28;20409;-80
2022/10/06 04:00:24;;;;;;;2.05;1.00;;;;;;;13.09;100.00;101923.13;6248638;28;20042;-80
2022/10/06 04:03:25;;;;;;;1.13;0.40;;;;;;;13.09;100.00;101928.41;6250520;28;20045;-79
2022/10/06 04:06:28;;;;;;;0.60;0.40;;;;;;;13.12;100.00;101922.97;6252306;28;20060;-80
2022/10/06 04:09:31;;;;;;;0.90;0.40;;;;;;;13.15;100.00;101934.25;6251444;28;20049;-79
2022/10/06 04:12:34;;;;;;;3.58;0.40;;;;;;;13.04;100.00;101925.97;6250171;28;20052;-80
2022/10/06 04:15:36;;;;;;;2.60;1.08;;;;;;;13.07;100.00;101936.38;6250279;28;20049;-80
2022/10/06 04:18:37;;;;;;;4.60;1.13;;;;;;;13.03;100.00;101937.41;6250826;28;20572;-80
2022/10/06 04:21:40;;;;;;;5.50;0.60;;;;;;;13.22;100.00;101942.78;6251019;28;20095;-79
2022/10/06 04:24:43;;;;;;;1.23;0.50;;;;;;;13.25;100.00;101949.69;6249891;28;20060;-80
2022/10/06 04:27:44;;;;;;;3.30;0.60;;;;;;;13.23;100.00;101952.41;6252991;28;20049;-79
2022/10/06 04:30:55;;;;;;;1.48;0.82;;;;;;;13.20;100.00;101958.66;6250486;28;20102;-79
2022/10/06 04:33:58;;;;;;;5.47;0.73;;;;;;;13.18;100.00;101970.22;6252314;28;20053;-80
2022/10/06 04:36:59;;;;;;;2.45;0.60;;;;;;;13.23;100.00;101970.91;6253240;28;20136;-79
2022/10/06 04:40:03;;;;;;;3.10;0.80;;;;;;;13.16;100.00;101974.69;6249338;28;20061;-79
2022/10/06 04:43:04;;;;;;;1.42;0.50;;;;;;;13.04;100.00;101984.03;6252075;28;20048;-79
2022/10/06 04:46:06;;;;;;;5.85;0.88;;;;;;;13.04;100.00;101991.94;6250427;28;20062;-79
2022/10/06 04:49:08;;;;;;;8.02;1.27;;;;;;;12.98;100.00;101992.19;6250065;28;20390;-79
2022/10/06 04:52:10;;;;;;;2.83;0.43;;;;;;;13.05;100.00;102004.22;6249436;28;20125;-79
2022/10/06 04:55:13;;;;;;;8.30;0.98;;;;;;;13.04;100.00;102009.56;6251010;28;20049;-80
2022/10/06 04:58:14;;;;;;;5.25;0.70;;;;;;;12.94;100.00;102015.22;6251190;28;20057;-79
2022/10/06 05:01:18;;;;;;;4.20;0.90;;;;;;;12.91;100.00;102018.00;6249008;28;20048;-80
2022/10/06 05:04:20;;;;;;;6.05;0.68;;;;;;;12.89;100.00;102027.75;6250220;28;20136;-79
2022/10/06 05:07:21;;;;;;;7.53;0.77;;;;;;;12.86;100.00;102041.09;6250076;28;20263;-79
2022/10/06 05:10:24;;;;;;;4.47;1.02;;;;;;;12.81;100.00;102047.44;6249637;28;20050;-79
2022/10/06 05:13:26;;;;;;;4.78;0.82;;;;;;;12.80;100.00;102051.88;6251484;28;20050;-80
2022/10/06 05:16:29;;;;;;;1.38;0.60;;;;;;;12.77;100.00;102053.81;6250586;28;20409;-80
2022/10/06 05:19:30;;;;;;;4.35;1.17;;;;;;;12.74;100.00;102065.31;6250583;28;20060;-80
2022/10/06 05:22:32;;;;;;;4.60;0.98;;;;;;;12.77;100.00;102069.63;6250962;28;20053;-81
2022/10/06 05:25:34;;;;;;;1.83;0.85;;;;;;;12.76;100.00;102075.81;6252085;28;20053;-81
2022/10/06 05:28:36;;;;;;;4.80;0.77;;;;;;;12.66;100.00;102083.25;6251199;28;20056;-80
2022/10/06 05:31:39;;;;;;;2.08;0.70;;;;;;;12.67;100.00;102096.38;6250437;28;20060;-79
2022/10/06 05:34:40;;;;;;;3.50;0.50;;;;;;;12.63;100.00;102091.28;6251157;28;20045;-79
2022/10/06 05:37:41;;;;;;;0.80;0.47;;;;;;;12.61;100.00;102106.31;6250895;28;20053;-80
2022/10/06 05:40:44;;;;;;;5.43;0.70;;;;;;;12.58;100.00;102106.41;6250512;28;20436;-80
2022/10/06 05:43:46;;;;;;;4.95;0.65;;;;;;;12.56;100.00;102119.69;6250060;28;20042;-80
2022/10/06 05:46:48;;;;;;;9.40;0.68;;;;;;;12.55;100.00;102125.03;6250414;28;20504;-80
2022/10/06 05:49:49;;;;;;;4.47;0.90;;;;;;;12.46;100.00;102128.88;6245640;28;20049;-79
2022/10/06 05:52:50;;;;;;;2.63;1.25;;;;;;;12.49;100.00;102131.41;6252333;28;20046;-79
2022/10/06 05:56:02;;;;;;;2.47;0.52;;;;;;;12.38;100.00;102141.47;6247127;28;20073;-80
2022/10/06 05:59:05;;;;;;;5.85;0.93;;;;;;;12.42;100.00;102156.28;6245150;28;20762;-80
2022/10/06 06:02:06;;;;;;;5.47;0.98;;;;;;;12.38;100.00;102157.31;6249539;28;20132;-80
2022/10/06 06:05:08;;;;;;;2.70;0.50;;;;;;;12.41;100.00;102167.75;6248177;28;20413;-80
2022/10/06 06:08:10;;;;;;;1.60;0.60;;;;;;;12.39;100.00;102169.56;6251411;28;20493;-81
2022/10/06 06:11:13;;;;;;;4.38;1.58;;;;;;;12.32;100.00;102184.78;6249744;28;20041;-78
2022/10/06 06:14:16;;;;;;;3.33;0.70;;;;;;;12.36;100.00;102185.53;6244468;28;20067;-77
2022/10/06 06:17:17;;;;;;;0.95;0.68;;;;;;;12.37;100.00;102190.72;6248363;28;20049;-80
2022/10/06 06:20:18;;;;;;;1.55;0.40;;;;;;;12.35;100.00;102203.13;6247310;28;20417;-80
2022/10/06 06:23:19;;;;;;;2.90;0.47;;;;;;;12.33;100.00;102204.94;6247748;28;20045;-80
2022/10/06 06:26:24;;;;;;;1.65;0.50;;;;;;;12.33;100.00;102218.13;6249994;28;20056;-79
2022/10/06 06:29:26;;;;;;;5.10;0.70;;;;;;;12.29;100.00;102221.78;6250227;28;20045;-80
2022/10/06 06:32:28;;;;;;;2.35;0.75;;;;;;;12.29;100.00;102227.03;6250240;28;20144;-79
2022/10/06 06:35:30;;;;;;;7.25;1.38;;;;;;;12.33;100.00;102236.56;6251092;28;20057;-78
2022/10/06 06:38:31;;;;;;;3.72;0.65;;;;;;;12.35;100.00;102241.78;6252848;28;20042;-80
2022/10/06 06:41:36;;;;;;;4.30;0.70;;;;;;;12.38;100.00;102250.44;6250415;28;20064;-79
2022/10/06 06:44:38;;;;;;;1.98;0.98;;;;;;;12.31;100.00;102246.31;6250706;28;20057;-80
2022/10/06 06:47:39;;;;;;;5.88;1.35;;;;;;;12.33;100.00;102241.84;6242523;28;20131;-80
2022/10/06 06:50:41;;;;;;;8.82;0.63;;;;;;;12.35;100.00;102253.22;6247780;28;20429;-80
2022/10/06 06:53:42;;;;;;;4.78;0.50;;;;;;;12.43;100.00;102264.31;6248914;28;20053;-80
2022/10/06 06:56:47;;;;;;;2.83;0.57;;;;;;;12.32;100.00;102266.50;6249638;28;20064;-79
2022/10/06 06:59:49;;;;;;;6.65;0.65;;;;;;;12.34;100.00;102269.91;6248893;28;20386;-81
2022/10/06 07:02:57;;;;;;;6.03;0.55;;;;;;;12.46;100.00;102270.41;6253047;28;20053;-78
2022/10/06 07:06:05;;;;;;;6.63;0.87;;;;;;;12.42;100.00;102278.41;6250400;28;20053;-80
2022/10/06 07:09:07;;;;;;;5.65;1.92;;;;;;;12.40;100.00;102292.59;6249874;28;20695;-79
2022/10/06 07:12:11;;;;;;;3.67;0.50;;;;;;;12.37;100.00;102290.91;6249388;28;20045;-79
2022/10/06 07:25:18;;;;;;;2.35;0.50;;;;;;;12.64;100.00;102310.13;6251273;28;20049;-79
2022/10/06 07:28:21;;;;;;;5.72;1.13;;;;;;;12.71;100.00;102308.13;6251903;28;20055;-80
2022/10/06 07:31:22;;;;;;;3.40;0.80;;;;;;;12.73;100.00;102326.53;6251054;28;20045;-79
2022/10/06 07:34:24;;;;;;;8.95;0.60;;;;;;;12.82;100.00;102324.41;6258295;28;20057;-79
2022/10/06 07:37:26;;;;;;;0.63;0.50;;;;;;;12.79;100.00;102335.06;6244941;28;20050;-79
2022/10/06 07:40:27;;;;;;;8.35;1.45;;;;;;;12.81;100.00;102340.28;6255866;28;20075;-79
2022/10/06 07:43:30;;;;;;;3.53;0.75;;;;;;;12.81;100.00;102342.91;6251814;28;20052;-79
2022/10/06 07:46:32;;;;;;;2.72;0.55;;;;;;;12.91;100.00;102352.25;6252791;28;20536;-79
2022/10/06 07:49:34;;;;;;;2.70;0.60;;;;;;;13.00;100.00;102351.03;6257353;28;20061;-79
2022/10/06 07:52:37;;;;;;;2.08;0.50;;;;;;;13.02;100.00;102362.38;6254872;28;20055;-78
2022/10/06 07:55:41;;;;;;;2.17;0.63;;;;;;;13.03;100.00;102364.94;6252654;28;20140;-78
2022/10/06 07:58:44;;;;;;;5.78;0.77;;;;;;;13.16;99.11;102373.28;6250188;28;20061;-77
2022/10/06 08:01:45;;;;;;;3.42;0.47;;;;;;;13.19;97.25;102363.47;6249645;28;20049;-77
2022/10/06 08:04:47;;;;;;;2.17;0.50;;;;;;;13.25;97.92;102372.09;6253911;28;20045;-77
2022/10/06 08:07:48;;;;;;;7.90;0.85;;;;;;;13.26;97.68;102372.03;6275491;28;20049;-79
2022/10/06 08:10:53;;;;;;;1.92;0.40;;;;;;;13.30;96.92;102383.34;6268619;28;20049;-78
2022/10/06 08:13:56;;;;;;;6.70;1.15;;;;;;;13.33;97.42;102383.22;6249605;28;20045;-77
2022/10/06 08:16:59;;;;;;;2.50;0.60;;;;;;;13.29;97.36;102392.19;6249998;28;20402;-77
2022/10/06 08:20:01;;;;;;;2.28;0.50;;;;;;;13.35;98.46;102389.31;6250442;28;20089;-78
2022/10/06 08:23:11;;;;;;;5.57;0.57;;;;;;;13.36;96.13;102406.88;6251179;28;20056;-78
2022/10/06 08:26:13;;;;;;;0.57;0.43;;;;;;;13.32;94.63;102408.78;6249253;28;20187;-77
2022/10/06 08:29:16;;;;;;;2.95;0.80;;;;;;;13.42;94.55;102414.56;6249738;28;20057;-78
2022/10/06 08:32:19;;;;;;;5.75;0.50;;;;;;;13.52;95.20;102418.56;6248560;28;20053;-78
2022/10/06 08:35:21;;;;;;;1.55;0.50;;;;;;;13.53;92.75;102422.06;6248448;28;20422;-77
2022/10/06 08:38:22;;;;;;;5.47;1.20;;;;;;;13.57;91.51;102439.50;6248962;28;20132;-77
2022/10/06 08:41:26;;;;;;;3.90;0.70;;;;;;;13.53;92.50;102441.41;6223188;28;20057;-78
2022/10/06 08:44:36;;;;;;;7.47;1.75;;;;;;;13.58;92.62;102430.66;6224164;28;20060;-77
2022/10/06 08:47:37;;;;;;;15.52;2.28;;;;;;;13.63;93.13;102437.50;6224073;28;20042;-77
2022/10/06 08:50:49;;;;;;;7.88;0.90;;;;;;;13.68;91.48;102445.25;6223713;28;20053;-77
2022/10/06 08:54:02;;;;;;;5.15;0.70;;;;;;;13.72;91.17;102438.94;6243599;28;20045;-77
2022/10/06 08:57:14;;;;;;;3.95;0.82;;;;;;;13.82;90.16;102448.22;6245704;28;20056;-77
2022/10/06 09:00:17;;;;;;;2.90;0.90;;;;;;;13.84;90.01;102438.44;6248384;28;20046;-77
2022/10/06 09:03:22;;;;;;;5.55;1.13;;;;;;;13.85;89.06;102448.09;6248229;28;20053;-77
2022/10/06 09:06:38;;;;;;;7.38;0.80;;;;;;;13.88;87.79;102442.69;6248285;28;20147;-77
2022/10/06 09:10:03;;;;;;;4.68;1.17;;;;;;;13.93;88.53;102451.28;6248370;28;20051;-78
2022/10/06 09:13:09;;;;;;;5.80;0.85;;;;;;;13.90;87.55;102451.41;6248173;28;20450;-76
2022/10/06 09:16:16;;;;;;;4.80;0.90;;;;;;;14.00;85.65;102459.84;6247719;28;20508;-77
2022/10/06 09:19:22;;;;;;;3.80;1.02;;;;;;;14.05;85.83;102472.88;6248032;28;20054;-77
2022/10/06 09:22:24;;;;;;;4.45;0.47;;;;;;;14.07;83.00;102474.50;6247964;28;20053;-76
2022/10/06 09:25:27;;;;;;;1.17;0.47;;;;;;;14.04;83.05;102481.72;6247559;28;20049;-76
2022/10/06 09:28:29;;;;;;;1.67;0.65;;;;;;;14.07;84.08;102492.16;6247666;28;20421;-76
2022/10/06 09:31:37;;;;;;;2.45;0.75;;;;;;;14.16;83.51;102487.34;6247470;28;20049;-77
2022/10/06 09:34:42;;;;;;;4.45;1.38;;;;;;;14.20;82.60;102488.97;6247492;28;20049;-77
2022/10/06 09:37:53;;;;;;;3.53;0.70;;;;;;;14.20;81.72;102496.03;6247201;28;20049;-77
2022/10/06 09:40:55;;;;;;;2.72;0.50;;;;;;;14.20;82.06;102496.91;6267983;28;20492;-77
2022/10/06 09:43:59;;;;;;;1.35;0.57;;;;;;;14.26;80.50;102501.09;6272061;28;20045;-77
2022/10/06 09:47:02;;;;;;;6.32;0.90;;;;;;;14.17;80.43;102496.16;6267600;28;20420;-76
2022/10/06 09:50:20;;;;;;;5.25;0.55;;;;;;;14.21;80.98;102493.31;6246405;28;20052;-78
2022/10/06 09:53:22;;;;;;;2.55;0.63;;;;;;;14.35;79.92;102498.06;6253672;28;20091;-76
2022/10/06 09:56:23;;;;;;;4.03;0.68;;;;;;;14.45;80.20;102506.50;6246506;28;20060;-77
2022/10/06 09:59:32;;;;;;;0.73;0.52;;;;;;;14.54;81.92;102503.50;6246718;28;20061;-77
2022/10/06 10:02:36;;;;;;;5.47;0.50;;;;;;;14.65;79.26;102519.75;6247195;28;20049;-76
2022/10/06 10:05:40;;;;;;;2.80;0.52;;;;;;;14.72;78.67;102512.44;6246605;28;20049;-77
2022/10/06 10:08:41;;;;;;;0.75;0.50;;;;;;;14.77;79.01;102525.47;6246748;28;20056;-77
2022/10/06 10:15:03;;;;;;;2.83;0.50;;;;;;;14.77;78.38;102523.69;6233225;28;20140;-76
2022/10/06 10:18:15;;;;;;;3.97;0.52;;;;;;;14.84;77.03;102517.19;6246539;28;20050;-77
2022/10/06 10:21:24;;;;;;;4.30;0.60;;;;;;;14.85;76.28;102520.69;6246295;28;20052;-76
2022/10/06 10:24:46;;;;;;;5.22;0.85;;;;;;;14.93;74.71;102521.22;6246491;28;20096;-77
2022/10/06 10:27:55;;;;;;;2.17;0.52;;;;;;;14.98;74.97;102516.59;6246071;28;20041;-76
2022/10/06 10:31:04;;;;;;;1.15;0.50;;;;;;;15.05;74.94;102523.34;6246094;28;20424;-77
2022/10/06 10:34:16;;;;;;;;;;;;;;;15.08;73.44;102519.69;6246747;28;20041;-76
2022/10/06 10:37:23;;;;;;;2.42;0.50;;;;;;;15.11;72.80;102517.78;6246643;28;19921;-77
2022/10/06 10:40:31;;;;;;;2.20;0.73;;;;;;;15.08;72.40;102517.06;6246289;28;20072;-77
2022/10/06 10:43:35;;;;;;;1.15;0.52;;;;;;;15.15;74.17;102521.16;6246347;28;20087;-77
2022/10/06 10:46:42;;;;;;;1.75;0.63;;;;;;;15.29;72.44;102531.16;6246269;28;20049;-77
2022/10/06 10:49:53;;;;;;;1.95;0.60;;;;;;;15.23;71.13;102533.13;6246142;28;20057;-77
2022/10/06 10:52:59;;;;;;;8.63;0.57;;;;;;;15.22;71.57;102535.88;6246676;28;20056;-77
2022/10/06 10:56:02;;;;;;;4.32;0.55;;;;;;;15.21;69.39;102532.38;6246226;28;20060;-78
2022/10/06 10:59:11;;;;;;;1.98;1.02;;;;;;;15.30;71.01;102525.75;6246847;28;20049;-77
2022/10/06 11:02:16;;;;;;;1.67;0.40;;;;;;;15.41;69.40;102536.75;6245979;28;20050;-77
2022/10/06 11:05:32;;;;;;;5.32;0.40;;;;;;;15.55;71.23;102546.72;6248527;28;20056;-77
2022/10/06 11:08:41;;;;;;;1.55;1.00;;;;;;;15.69;70.63;102543.47;6251061;28;20480;-79
2022/10/06 11:11:55;;;;;;;5.25;0.60;;;;;;;15.80;70.85;102553.56;6251285;28;20134;-77
2022/10/06 11:15:03;;;;;;;1.90;0.73;;;;;;;16.00;69.10;102555.31;6251981;28;20056;-76
2022/10/06 11:18:14;;;;;;;5.50;0.93;;;;;;;16.17;68.32;102560.69;6250925;28;20053;-76
2022/10/06 11:21:21;;;;;;;0.57;0.43;;;;;;;16.07;67.20;102554.06;6250519;28;20132;-79
2022/10/06 11:24:31;;;;;;;2.25;0.60;;;;;;;15.95;66.68;102553.75;6250674;28;20049;-78
2022/10/06 11:27:41;;;;;;;3.05;0.50;;;;;;;16.07;68.10;102557.59;6251361;28;20055;-77
2022/10/06 11:30:56;;;;;;;6.68;0.88;;;;;;;15.91;65.80;102557.47;6250463;28;20420;-77
2022/10/06 11:34:00;;;;;;;0.38;0.30;;;;;;;16.13;66.87;102562.63;6250386;28;20052;-77
2022/10/06 11:37:16;;;;;;;2.97;0.28;;;;;;;16.30;66.17;102571.53;6251404;28;20053;-77
2022/10/06 11:40:35;;;;;;;3.60;0.55;;;;;;;16.49;64.04;102561.78;6250416;28;20045;-77
2022/10/06 11:43:46;;;;;;;2.58;0.38;;;;;;;16.15;62.97;102563.38;6250396;28;20631;-78
2022/10/06 11:46:53;;;;;;;3.65;0.50;;;;;;;16.18;63.45;102562.41;6250675;28;20049;-77
2022/10/06 11:49:55;;;;;;;3.38;0.80;;;;;;;16.24;64.72;102565.59;6249753;28;20523;-77
2022/10/06 11:52:58;;;;;;;5.07;1.23;;;;;;;16.15;64.44;102557.22;6250349;28;20046;-77
2022/10/06 11:56:42;;;;;;;1.15;0.52;;;;;;;16.46;63.96;102557.47;6249680;28;20049;-78
2022/10/06 11:59:43;;;;;;;2.72;0.65;;;;;;;16.42;63.30;102550.59;6249806;28;20061;-78
2022/10/06 12:02:46;;;;;;;5.38;0.32;;;;;;;16.80;61.92;102565.56;6249933;28;20053;-79
2022/10/06 12:05:48;;;;;;;1.25;0.60;;;;;;;17.06;60.84;102549.16;6250385;28;20049;-79
2022/10/06 12:08:50;;;;;;;7.78;0.73;;;;;;;17.43;59.48;102550.75;6306556;22;20041;-80
2022/10/06 12:11:54;;;;;;;3.53;0.68;;;;;;;17.17;61.93;102553.94;6250789;28;20053;-78
2022/10/06 12:15:02;;;;;;;2.40;0.40;;;;;;;17.10;61.00;102558.69;6252197;28;20041;-80
2022/10/06 12:18:14;;;;;;;3.10;0.40;;;;;;;17.17;61.52;102556.59;6248685;28;20148;-78
2022/10/06 12:21:36;;;;;;;1.95;0.70;;;;;;;17.18;59.59;102548.53;6238830;28;20050;-79
2022/10/06 12:24:44;;;;;;;2.85;0.38;;;;;;;17.54;58.98;102560.81;6225403;28;20046;-79
2022/10/06 12:28:00;;;;;;;4.10;0.60;;;;;;;17.62;57.86;102550.63;6225600;28;20089;-80
2022/10/06 12:31:26;;;;;;;2.10;0.60;;;;;;;17.76;59.61;102549.91;6224941;28;20050;-80
2022/10/06 12:34:41;;;;;;;4.65;1.80;;;;;;;17.43;60.29;102553.41;6225455;28;20042;-81
2022/10/06 12:37:44;;;;;;;3.88;1.00;;;;;;;17.78;61.02;102556.00;6225795;28;20082;-80
2022/10/06 12:40:54;;;;;;;8.80;0.73;;;;;;;17.15;60.79;102550.50;6225404;28;20057;-80
2022/10/06 12:43:57;;;;;;;3.13;0.57;;;;;;;17.33;62.25;102557.50;6224720;28;20410;-78
2022/10/06 12:47:02;;;;;;;1.63;0.55;;;;;;;16.99;59.80;102553.94;6226247;28;20053;-79
2022/10/06 12:50:12;;;;;;;5.20;0.73;;;;;;;17.38;60.57;102546.63;6224268;28;20076;-80
2022/10/06 12:53:20;;;;;;;2.72;0.65;;;;;;;17.37;60.54;102556.41;6225758;28;20057;-78
2022/10/06 12:56:28;;;;;;;2.58;0.55;;;;;;;17.55;59.52;102554.56;6225033;28;20061;-78
2022/10/06 12:59:32;;;;;;;2.25;0.52;;;;;;;17.62;58.02;102561.28;6225323;28;20061;-78
2022/10/06 13:02:34;;;;;;;5.03;0.52;;;;;;;17.99;58.58;102545.97;6225163;28;20061;-79
2022/10/06 13:05:36;;;;;;;7.53;0.80;;;;;;;18.28;57.56;102538.16;6226095;28;20060;-80
2022/10/06 13:08:40;;;;;;;9.48;0.85;;;;;;;18.49;57.69;102550.22;6224749;28;20053;-79
2022/10/06 13:11:42;;;;;;;5.72;0.50;;;;;;;18.45;56.86;102546.88;6225008;28;20052;-80
2022/10/06 13:14:44;;;;;;;3.28;0.52;;;;;;;18.23;56.50;102549.91;6225084;28;20053;-77
2022/10/06 13:17:52;;;;;;;2.70;0.45;;;;;;;18.62;54.61;102550.34;6217650;28;20052;-79
2022/10/06 13:20:55;;;;;;;2.97;0.60;;;;;;;18.60;52.02;102550.44;6224802;28;20054;-80
2022/10/06 13:23:56;;;;;;;6.03;0.50;;;;;;;19.00;52.03;102542.78;6225937;28;20058;-79
2022/10/06 13:27:01;;;;;;;5.63;0.70;;;;;;;18.73;54.18;102548.81;6223411;28;20062;-79
2022/10/06 13:30:18;;;;;;;2.42;0.50;;;;;;;18.83;53.72;102543.78;6213470;28;20686;-80
2022/10/06 13:33:20;;;;;;;4.63;0.57;;;;;;;18.97;51.90;102545.63;6218794;28;20054;-78
2022/10/06 13:36:22;;;;;;;1.90;0.60;;;;;;;18.84;51.99;102540.19;6226295;28;20496;-80
2022/10/06 13:39:25;;;;;;;3.80;0.70;;;;;;;18.72;53.01;102541.78;6233354;28;20064;-79
2022/10/06 13:42:29;;;;;;;4.18;0.88;;;;;;;18.99;51.37;102535.75;6230206;28;20094;-80
2022/10/06 13:45:31;;;;;;;2.90;0.65;;;;;;;18.78;53.61;102539.69;6232902;28;20461;-82
2022/10/06 13:48:34;;;;;;;4.07;0.60;;;;;;;18.56;53.56;102535.59;6221730;28;20180;-81
2022/10/06 13:51:35;;;;;;;1.60;0.70;;;;;;;18.38;54.61;102536.66;6223061;28;20054;-82
2022/10/06 13:54:40;;;;;;;4.50;0.63;;;;;;;18.49;56.46;102543.09;6222864;28;20050;-81
2022/10/06 13:57:45;;;;;;;3.80;0.68;;;;;;;19.01;51.52;102539.19;6222872;28;20050;-81
2022/10/06 14:00:54;;;;;;;5.05;0.50;;;;;;;18.69;52.13;102541.94;6222737;28;20448;-83
2022/10/06 14:04:11;;;;;;;;;;;;;;;18.33;53.04;102542.25;6223746;28;20050;-79
2022/10/06 14:07:14;;;;;;;2.55;0.55;;;;;;;18.15;54.63;102546.81;6223650;28;19921;-81
2022/10/06 14:10:16;;;;;;;2.50;0.40;;;;;;;18.18;53.56;102549.31;6222817;28;20053;-81
2022/10/06 14:13:22;;;;;;;3.30;0.90;;;;;;;18.49;54.09;102548.41;6226839;28;20045;-81
2022/10/06 14:16:25;;;;;;;2.42;0.43;;;;;;;18.53;52.24;102551.78;6216559;28;20050;-81
2022/10/06 14:19:35;;;;;;;6.53;0.63;;;;;;;18.15;53.72;102546.81;6198894;28;20054;-81
2022/10/06 14:22:37;;;;;;;1.73;0.55;;;;;;;18.00;54.90;102537.06;6198591;28;20058;-81
2022/10/06 14:25:38;;;;;;;5.22;0.68;;;;;;;17.98;55.45;102538.91;6203430;28;20050;-80
2022/10/06 14:28:45;;;;;;;3.80;0.40;;;;;;;17.94;56.48;102537.38;6216033;28;20045;-80